SEKCJA WYDRUKÓW, pokaż »

TAF EPSY 161730Z 1618/1703 34005KT CAVOK=

TAF EPZG 161730Z 1618/1703 VRB02KT CAVOK
BECMG 1618/1620 09010KT=

TAF EPZG 302300Z NIL=